Time;durP1;ratioP1;P1;durP2;ratioP2;P2;SDS_P1;SDS_P2;PMS_P1;PMS_P2;Temp;Humidity;BMP_temperature;BMP_pressure;BME280_temperature;BME280_humidity;BME280_pressure;Samples;Min_cycle;Max_cycle;Signal;HPM_P1;HPM_P2
2022/07/15 00:00:00;;;;;;;4.10;2.50;;;;;;;15.92;66.19;95474.27;1681343;85;21033;-64
2022/07/15 00:02:27;;;;;;;2.98;2.12;;;;;;;15.91;66.17;95475.21;1681775;85;21511;-63
2022/07/15 00:04:54;;;;;;;4.08;2.52;;;;;;;15.86;67.23;95468.36;1681034;85;21041;-64
2022/07/15 00:07:21;;;;;;;4.08;2.50;;;;;;;15.79;66.89;95467.26;1675347;85;21092;-64
2022/07/15 00:12:33;;;;;;;3.70;2.27;;;;;;;15.71;67.57;95465.39;1666269;86;21070;-64
2022/07/15 00:15:00;;;;;;;2.87;2.20;;;;;;;15.68;67.34;95466.81;1666369;86;21038;-64
2022/07/15 00:17:27;;;;;;;2.40;2.20;;;;;;;15.70;67.53;95472.09;1666555;86;21054;-64
2022/07/15 00:19:53;;;;;;;3.02;2.00;;;;;;;15.64;67.84;95464.34;1666159;86;21003;-64
2022/07/15 00:22:21;;;;;;;5.65;2.25;;;;;;;15.64;67.94;95467.86;1666245;86;21529;-64
2022/07/15 00:24:47;;;;;;;3.02;2.37;;;;;;;15.66;67.33;95466.00;1666345;86;21575;-64
2022/07/15 00:27:14;;;;;;;3.05;2.00;;;;;;;15.68;67.18;95465.48;1666319;86;21045;-64
2022/07/15 00:29:41;;;;;;;3.77;2.00;;;;;;;15.67;67.35;95466.86;1666379;86;21026;-64
2022/07/15 00:32:07;;;;;;;3.87;2.30;;;;;;;15.64;67.88;95463.86;1666308;86;21539;-64
2022/07/15 00:34:34;;;;;;;4.25;2.12;;;;;;;15.63;67.95;95465.28;1666456;85;21082;-64
2022/07/15 00:37:01;;;;;;;3.12;2.20;;;;;;;15.63;67.68;95467.47;1666504;86;21089;-64
2022/07/15 00:39:28;;;;;;;4.03;2.10;;;;;;;15.66;67.94;95469.14;1665772;86;21404;-64
2022/07/15 00:41:54;;;;;;;5.20;2.12;;;;;;;15.68;67.94;95462.83;1666375;86;21504;-64
2022/07/15 00:44:21;;;;;;;3.05;2.10;;;;;;;15.67;67.59;95462.88;1666018;86;21106;-64
2022/07/15 00:46:48;;;;;;;1.85;1.60;;;;;;;15.69;67.85;95462.36;1666306;86;21010;-64
2022/07/15 00:49:15;;;;;;;4.05;2.02;;;;;;;15.69;67.91;95459.26;1666358;86;21103;-64
2022/07/15 00:51:46;;;;;;;2.00;1.87;;;;;;;15.70;67.73;95459.68;1666322;86;21014;-64
2022/07/15 00:54:15;;;;;;;6.15;1.70;;;;;;;15.74;67.75;95459.08;1666122;86;21532;-64
2022/07/15 00:56:56;;;;;;;2.75;2.00;;;;;;;15.73;67.53;95458.69;1643409;86;21476;-64
2022/07/15 00:59:28;;;;;;;2.05;1.52;;;;;;;15.77;67.49;95456.28;1666275;86;21572;-64
2022/07/15 01:01:57;;;;;;;3.37;1.75;;;;;;;15.78;67.55;95460.22;1666107;86;21535;-64
2022/07/15 01:04:24;;;;;;;3.50;2.00;;;;;;;15.85;67.22;95459.52;1666283;86;21078;-64
2022/07/15 01:06:51;;;;;;;3.17;1.90;;;;;;;15.82;66.87;95461.42;1643561;85;21050;-64
2022/07/15 01:09:19;;;;;;;3.47;1.90;;;;;;;15.78;67.21;95459.36;1666057;86;21579;-64
2022/07/15 01:11:47;;;;;;;3.45;2.00;;;;;;;15.77;67.37;95447.86;1666444;86;21009;-64
2022/07/15 01:14:13;;;;;;;2.05;1.95;;;;;;;15.82;67.01;95459.62;1666149;86;21050;-64
2022/07/15 01:16:40;;;;;;;2.80;1.90;;;;;;;15.84;67.06;95449.78;1666121;86;21038;-64
2022/07/15 01:19:07;;;;;;;2.52;2.00;;;;;;;15.83;67.64;95445.41;1666313;86;21054;-64
2022/07/15 01:21:36;;;;;;;2.60;2.02;;;;;;;15.82;67.17;95442.33;1665324;86;21897;-64
2022/07/15 01:24:04;;;;;;;2.00;1.80;;;;;;;15.79;67.56;95443.32;1666232;86;21034;-64
2022/07/15 01:26:33;;;;;;;3.75;1.90;;;;;;;15.76;67.62;95449.24;1666233;86;21133;-64
2022/07/15 01:29:00;;;;;;;3.27;1.80;;;;;;;15.72;67.84;95443.64;1666121;86;21038;-64
2022/07/15 01:31:27;;;;;;;5.33;2.10;;;;;;;15.72;67.61;95446.30;1666205;86;21086;-64
2022/07/15 01:33:54;;;;;;;3.12;1.87;;;;;;;15.70;69.01;95434.41;1666360;86;21026;-64
2022/07/15 01:36:21;;;;;;;2.95;1.80;;;;;;;15.64;68.58;95438.59;1666215;86;21476;-64
2022/07/15 01:38:50;;;;;;;2.10;2.00;;;;;;;15.62;68.80;95438.26;1666204;85;21520;-64
2022/07/15 01:41:17;;;;;;;2.02;1.87;;;;;;;15.61;68.84;95440.53;1666450;86;21070;-64
2022/07/15 01:43:43;;;;;;;5.10;1.82;;;;;;;15.55;68.63;95438.52;1666016;86;21050;-64
2022/07/15 01:46:10;;;;;;;3.85;1.95;;;;;;;15.50;68.91;95443.63;1666321;86;21042;-64
2022/07/15 01:51:25;;;;;;;2.20;1.90;;;;;;;15.40;69.62;95437.81;1661931;86;21058;-64
2022/07/15 01:53:52;;;;;;;2.08;1.90;;;;;;;15.37;69.07;95444.55;1666188;86;21018;-64
2022/07/15 01:56:18;;;;;;;2.00;1.90;;;;;;;15.34;69.09;95437.57;1665957;86;21058;-64
2022/07/15 01:58:46;;;;;;;2.95;2.17;;;;;;;15.33;69.30;95439.84;1666529;86;21122;-64
2022/07/15 02:01:13;;;;;;;4.80;2.10;;;;;;;15.32;69.75;95432.80;1666299;86;21557;-64
2022/07/15 02:03:40;;;;;;;4.37;1.80;;;;;;;15.32;69.34;95427.92;1666142;86;21168;-64
2022/07/15 02:06:07;;;;;;;4.22;2.15;;;;;;;15.30;70.28;95422.69;1666206;86;21053;-64
2022/07/15 02:08:33;;;;;;;3.10;2.08;;;;;;;15.30;69.77;95421.83;1673892;85;21086;-64
2022/07/15 02:11:01;;;;;;;2.17;1.98;;;;;;;15.32;70.17;95420.84;1678487;85;21014;-64
2022/07/15 02:13:29;;;;;;;3.92;2.30;;;;;;;15.33;70.26;95419.91;1674441;85;21050;-64
2022/07/15 02:15:57;;;;;;;4.40;1.90;;;;;;;15.36;69.61;95424.23;1678925;85;21076;-64
2022/07/15 02:18:24;;;;;;;4.75;2.58;;;;;;;15.39;69.52;95421.44;1678613;85;21001;-64
2022/07/15 02:20:51;;;;;;;2.95;1.90;;;;;;;15.40;69.79;95423.19;1678401;85;21041;-64
2022/07/15 02:23:18;;;;;;;2.10;1.90;;;;;;;15.41;69.13;95425.38;1678843;85;21045;-64
2022/07/15 02:25:45;;;;;;;3.40;2.67;;;;;;;15.43;69.54;95424.39;1678591;85;21045;-64
2022/07/15 02:28:13;;;;;;;2.65;2.45;;;;;;;15.45;69.34;95429.19;1678660;85;21014;-64
2022/07/15 02:30:42;;;;;;;3.02;1.90;;;;;;;15.49;69.48;95422.80;1678580;85;21034;-64
2022/07/15 02:33:10;;;;;;;3.05;1.87;;;;;;;15.50;69.63;95425.02;1678680;85;21034;-64
2022/07/15 02:35:37;;;;;;;4.05;1.90;;;;;;;15.53;69.34;95426.22;1678444;85;21547;-64
2022/07/15 02:38:05;;;;;;;2.15;1.95;;;;;;;15.57;69.33;95423.81;1678645;85;21080;-64
2022/07/15 02:40:32;;;;;;;2.27;1.60;;;;;;;15.55;69.05;95422.56;1678369;85;21077;-64
2022/07/15 02:43:02;;;;;;;2.33;1.67;;;;;;;15.55;68.90;95420.37;1678914;85;21045;-64
2022/07/15 02:45:34;;;;;;;8.43;2.12;;;;;;;15.54;68.82;95423.95;1674234;85;21495;-64
2022/07/15 02:48:02;;;;;;;4.53;2.00;;;;;;;15.53;68.87;95424.42;1678748;85;21049;-64
2022/07/15 02:50:31;;;;;;;3.02;2.27;;;;;;;15.56;68.87;95418.11;1678860;85;21078;-64
2022/07/15 02:52:58;;;;;;;2.12;1.82;;;;;;;15.52;68.96;95420.48;1678684;85;21086;-64
2022/07/15 02:55:26;;;;;;;1.90;1.75;;;;;;;15.48;68.71;95422.88;1651891;85;21033;-64
2022/07/15 02:57:54;;;;;;;2.22;1.90;;;;;;;15.41;68.79;95423.58;1678482;85;21072;-64
2022/07/15 03:00:23;;;;;;;2.12;1.72;;;;;;;15.42;68.65;95416.03;1678771;85;21030;-64
2022/07/15 03:02:51;;;;;;;1.82;1.72;;;;;;;15.35;69.34;95419.38;1678750;85;21050;-64
2022/07/15 03:05:18;;;;;;;2.12;1.72;;;;;;;15.32;69.72;95418.19;1678933;85;21038;-64
2022/07/15 03:07:46;;;;;;;1.90;1.60;;;;;;;15.30;69.21;95426.67;1678302;85;21073;-64
2022/07/15 03:10:15;;;;;;;6.15;1.95;;;;;;;15.23;70.21;95428.31;1678911;85;21528;-64
2022/07/15 03:12:42;;;;;;;2.77;2.08;;;;;;;15.21;69.33;95423.52;1678778;85;21032;-64
2022/07/15 03:15:11;;;;;;;3.62;1.82;;;;;;;15.21;69.33;95416.87;1678355;85;21061;-64
2022/07/15 03:17:41;;;;;;;1.65;1.55;;;;;;;15.17;69.15;95420.56;1678672;85;21049;-64
2022/07/15 03:20:10;;;;;;;2.33;1.90;;;;;;;15.15;69.19;95418.84;1678790;85;21045;-64
2022/07/15 03:22:40;;;;;;;2.30;2.10;;;;;;;15.18;69.79;95420.52;1677827;85;21009;-64
2022/07/15 03:25:08;;;;;;;1.82;1.72;;;;;;;15.20;70.28;95424.45;1679048;85;21531;-64
2022/07/15 03:27:36;;;;;;;3.75;2.17;;;;;;;15.25;70.03;95426.00;1651423;85;21555;-64
2022/07/15 03:30:05;;;;;;;3.80;2.52;;;;;;;15.32;69.96;95423.50;1678974;85;21085;-64
2022/07/15 03:32:32;;;;;;;3.75;2.50;;;;;;;15.37;70.07;95431.27;1679181;85;21002;-64
2022/07/15 03:35:00;;;;;;;4.92;2.58;;;;;;;15.42;69.86;95428.43;1678383;85;21080;-64
2022/07/15 03:37:29;;;;;;;5.78;2.80;;;;;;;15.49;70.25;95429.45;1678835;85;21488;-64
2022/07/15 03:39:56;;;;;;;4.50;2.85;;;;;;;15.65;69.73;95427.05;1678607;85;21578;-64
2022/07/15 03:42:23;;;;;;;3.25;2.95;;;;;;;15.78;69.30;95429.63;1678622;85;21021;-64
2022/07/15 03:44:50;;;;;;;7.35;3.02;;;;;;;15.87;69.01;95432.83;1678503;85;21121;-64
2022/07/15 03:47:18;;;;;;;4.60;2.80;;;;;;;15.94;68.72;95431.64;1678817;85;21033;-64
2022/07/15 03:49:44;;;;;;;3.75;2.70;;;;;;;15.94;68.30;95426.32;1678572;85;21062;-64
2022/07/15 03:52:11;;;;;;;4.85;2.77;;;;;;;16.00;68.15;95427.37;1678614;85;21084;-64
2022/07/15 03:54:38;;;;;;;3.85;3.55;;;;;;;15.99;68.83;95427.84;1678574;85;21085;-64
2022/07/15 03:57:05;;;;;;;2.37;2.17;;;;;;;15.96;69.28;95434.64;1678704;85;21050;-64
2022/07/15 03:59:32;;;;;;;3.37;2.20;;;;;;;15.92;69.61;95436.16;1678739;85;21057;-64
2022/07/15 04:01:59;;;;;;;4.12;2.70;;;;;;;15.88;69.88;95431.45;1678792;85;20966;-63
2022/07/15 04:04:25;;;;;;;2.77;2.40;;;;;;;15.87;69.75;95427.51;1678394;85;21037;-64
2022/07/15 04:06:52;;;;;;;2.90;2.70;;;;;;;15.92;70.25;95433.03;1678531;85;21061;-64
2022/07/15 04:09:19;;;;;;;5.72;2.95;;;;;;;15.97;70.09;95428.37;1680513;85;21503;-64
2022/07/15 04:11:45;;;;;;;5.58;3.62;;;;;;;16.04;69.12;95426.33;1681273;85;21081;-64
2022/07/15 04:14:13;;;;;;;5.53;4.53;;;;;;;16.15;68.61;95428.08;1681626;85;21037;-64
2022/07/15 04:16:42;;;;;;;6.65;4.12;;;;;;;16.30;68.54;95427.85;1681331;85;21041;-64
2022/07/15 04:19:11;;;;;;;6.85;3.05;;;;;;;16.44;68.12;95429.45;1645780;87;21037;-64
2022/07/15 04:21:37;;;;;;;6.00;3.20;;;;;;;16.59;67.70;95422.58;1618143;89;21073;-64
2022/07/15 04:24:05;;;;;;;4.35;3.10;;;;;;;16.73;67.28;95429.08;1645982;87;21583;-64
2022/07/15 04:26:33;;;;;;;6.35;3.77;;;;;;;16.89;67.06;95430.16;1646211;86;21034;-64
2022/07/15 04:29:01;;;;;;;3.45;3.05;;;;;;;17.01;67.07;95426.04;1645870;87;21787;-64
2022/07/15 04:31:28;;;;;;;4.85;2.58;;;;;;;17.14;66.88;95424.55;1646088;87;21085;-64
2022/07/15 04:33:57;;;;;;;5.55;2.33;;;;;;;17.28;66.63;95430.55;1644927;87;21081;-64
2022/07/15 04:36:24;;;;;;;3.55;2.50;;;;;;;17.42;66.52;95426.77;1645880;87;21054;-63
2022/07/15 04:38:51;;;;;;;3.60;2.15;;;;;;;17.53;66.26;95428.91;1645919;86;21543;-64
2022/07/15 04:41:18;;;;;;;3.02;2.40;;;;;;;17.67;67.14;95436.25;1646239;86;21078;-64
2022/07/15 04:43:46;;;;;;;2.75;2.20;;;;;;;17.67;67.14;95436.25;1646086;87;21029;-64
2022/07/15 04:46:14;;;;;;;3.92;3.12;;;;;;;17.87;66.26;95421.48;1646056;87;21058;-64
2022/07/15 04:51:28;;;;;;;3.80;2.83;;;;;;;18.05;66.21;95430.37;1645425;87;21069;-64
2022/07/15 04:53:55;;;;;;;4.92;2.70;;;;;;;18.21;65.74;95427.77;1645892;87;21086;-64
2022/07/15 04:56:22;;;;;;;5.15;2.35;;;;;;;18.35;65.21;95423.07;1646167;87;21046;-64
2022/07/15 04:58:50;;;;;;;3.52;2.30;;;;;;;18.49;64.96;95418.33;1599009;87;21078;-64
2022/07/15 05:01:17;;;;;;;5.10;2.62;;;;;;;18.56;63.60;95404.56;1646039;87;21050;-64
2022/07/15 05:03:43;;;;;;;2.72;2.42;;;;;;;18.78;63.97;95400.79;1646262;87;21002;-64
2022/07/15 05:06:11;;;;;;;4.65;2.80;;;;;;;18.95;63.58;95390.49;1646037;87;21125;-64
2022/07/15 05:08:38;;;;;;;2.92;2.40;;;;;;;19.09;63.58;95390.61;1644290;87;21174;-64
2022/07/15 05:11:05;;;;;;;5.70;2.90;;;;;;;19.27;62.71;95391.88;1641044;87;21042;-64
2022/07/15 05:13:32;;;;;;;5.37;2.60;;;;;;;19.46;62.25;95388.07;1613548;89;21058;-64
2022/07/15 05:16:00;;;;;;;4.75;2.30;;;;;;;19.70;62.22;95385.45;1640959;87;21058;-64
2022/07/15 05:18:27;;;;;;;6.75;2.37;;;;;;;19.94;61.59;95382.69;1636017;88;21062;-64
2022/07/15 05:20:56;;;;;;;6.85;2.08;;;;;;;20.14;60.15;95383.33;1636115;88;21039;-64
2022/07/15 05:23:24;;;;;;;4.22;2.22;;;;;;;20.27;60.26;95379.80;1636469;88;21074;-64
2022/07/15 05:25:53;;;;;;;8.13;2.15;;;;;;;20.35;60.78;95394.08;1636190;88;21034;-64
2022/07/15 05:28:20;;;;;;;4.80;2.40;;;;;;;20.51;60.27;95392.20;1641033;86;21010;-64
2022/07/15 05:30:48;;;;;;;7.62;2.50;;;;;;;20.70;60.68;95389.28;1613682;89;21568;-64
2022/07/15 05:33:19;;;;;;;10.32;2.47;;;;;;;20.99;60.72;95390.64;1636379;88;21460;-64
2022/07/15 05:35:46;;;;;;;11.20;2.98;;;;;;;21.26;60.17;95386.66;1636179;88;21018;-64
2022/07/15 05:38:13;;;;;;;12.55;3.17;;;;;;;21.39;59.60;95386.77;1636201;88;21046;-64
2022/07/15 05:40:40;;;;;;;5.40;2.83;;;;;;;21.49;59.50;95391.91;1636249;88;21047;-64
2022/07/15 05:43:06;;;;;;;9.65;2.85;;;;;;;21.51;61.12;95391.34;1641162;87;21384;-64
2022/07/15 05:45:34;;;;;;;2.35;1.55;;;;;;;21.47;60.08;95392.98;1613397;89;21070;-64
2022/07/15 05:48:04;;;;;;;6.67;2.27;;;;;;;21.68;49.95;95380.84;1636155;88;21130;-64
2022/07/15 05:50:33;;;;;;;6.90;2.05;;;;;;;21.86;54.50;95388.66;1636210;88;21095;-64
2022/07/15 05:53:00;;;;;;;7.62;2.58;;;;;;;21.92;54.91;95394.95;1636346;88;20995;-64
2022/07/15 05:55:27;;;;;;;3.98;2.33;;;;;;;21.90;55.60;95402.23;1640678;87;21571;-64
2022/07/15 05:57:55;;;;;;;4.97;2.05;;;;;;;21.85;55.88;95401.23;1636267;88;20998;-64
2022/07/15 06:00:23;;;;;;;8.18;2.60;;;;;;;21.87;54.80;95415.88;1636331;88;21054;-64
2022/07/15 06:02:51;;;;;;;9.48;2.15;;;;;;;21.92;53.22;95417.78;1640936;87;21524;-64
2022/07/15 06:05:22;;;;;;;2.47;1.75;;;;;;;21.94;54.54;95417.20;1613941;89;21070;-64
2022/07/15 06:07:53;;;;;;;8.75;2.80;;;;;;;21.92;54.39;95417.78;1612558;89;21112;-64
2022/07/15 06:10:22;;;;;;;9.50;2.55;;;;;;;21.88;54.16;95421.16;1615442;88;21065;-64
2022/07/15 06:12:49;;;;;;;8.73;2.70;;;;;;;21.86;54.38;95425.77;1653400;86;21021;-64
2022/07/15 06:15:16;;;;;;;10.38;2.50;;;;;;;21.85;54.72;95427.20;1676733;86;21512;-64
2022/07/15 06:17:43;;;;;;;8.73;2.55;;;;;;;21.80;54.78;95423.50;1676693;86;21046;-64
2022/07/15 06:20:11;;;;;;;1.87;1.60;;;;;;;21.79;54.54;95429.81;1676779;86;21034;-64
2022/07/15 06:22:39;;;;;;;4.05;1.70;;;;;;;21.72;56.46;95432.52;1676193;86;21038;-64
2022/07/15 06:25:07;;;;;;;3.77;1.95;;;;;;;21.67;56.65;95434.19;1676755;86;21038;-64
2022/07/15 06:27:34;;;;;;;2.45;1.77;;;;;;;21.67;56.34;95430.61;1676840;86;21042;-64
2022/07/15 06:30:01;;;;;;;16.37;2.95;;;;;;;21.72;56.05;95432.06;1676728;86;21034;-64
2022/07/15 06:32:28;;;;;;;3.90;1.50;;;;;;;21.77;56.27;95427.70;1676656;86;21010;-64
2022/07/15 06:34:54;;;;;;;7.60;1.70;;;;;;;21.76;57.01;95427.34;1676862;86;21061;-64
2022/07/15 06:37:21;;;;;;;1.87;1.50;;;;;;;21.77;57.55;95434.42;1676451;86;21065;-64
2022/07/15 06:39:48;;;;;;;1.77;1.52;;;;;;;21.78;56.97;95436.16;1676596;85;21001;-64
2022/07/15 06:42:15;;;;;;;5.60;1.50;;;;;;;21.81;56.84;95434.61;1676980;86;21029;-64
2022/07/15 06:44:41;;;;;;;4.37;1.70;;;;;;;21.87;56.67;95431.50;1676793;86;21042;-64
2022/07/15 06:47:09;;;;;;;3.17;1.60;;;;;;;21.98;56.58;95433.51;1676979;86;21523;-64
2022/07/15 06:49:35;;;;;;;5.37;1.57;;;;;;;22.13;57.94;95440.55;1677074;86;21014;-64
2022/07/15 06:52:03;;;;;;;6.15;1.90;;;;;;;22.25;56.14;95438.88;1676658;86;21026;-64
2022/07/15 06:54:30;;;;;;;3.33;1.40;;;;;;;22.38;56.11;95443.83;1676788;86;21049;-64
2022/07/15 06:56:59;;;;;;;4.87;1.72;;;;;;;22.51;55.71;95451.06;1676178;86;21081;-64
2022/07/15 06:59:26;;;;;;;4.10;1.70;;;;;;;22.56;55.21;95459.67;1676549;86;21097;-64
2022/07/15 07:01:54;;;;;;;2.55;1.22;;;;;;;22.63;55.00;95450.23;1676185;86;21524;-64
2022/07/15 07:04:22;;;;;;;4.80;1.62;;;;;;;22.70;50.04;95458.22;1676754;86;21077;-64
2022/07/15 07:06:49;;;;;;;3.27;1.60;;;;;;;22.93;49.28;95465.19;1676760;86;21042;-64
2022/07/15 07:09:18;;;;;;;3.55;1.60;;;;;;;23.03;49.53;95462.27;1678135;85;21056;-64
2022/07/15 07:11:45;;;;;;;5.12;1.60;;;;;;;23.13;48.26;95459.80;1681169;85;21078;-64
2022/07/15 07:14:12;;;;;;;3.45;1.35;;;;;;;23.19;46.60;95466.97;1681450;85;21053;-65
2022/07/15 07:16:39;;;;;;;3.47;1.40;;;;;;;23.26;46.60;95464.71;1681488;85;21141;-64
2022/07/15 07:19:06;;;;;;;3.90;1.42;;;;;;;23.29;45.06;95473.41;1681347;85;21483;-64
2022/07/15 07:21:33;;;;;;;1.75;1.40;;;;;;;23.37;44.71;95460.75;1681218;85;21034;-64
2022/07/15 07:23:59;;;;;;;3.50;1.40;;;;;;;23.46;42.46;95460.11;1679097;85;21049;-64
2022/07/15 07:26:27;;;;;;;2.58;1.67;;;;;;;23.55;42.27;95463.95;1681053;85;21618;-64
2022/07/15 07:28:54;;;;;;;2.12;1.35;;;;;;;23.60;44.05;95470.36;1681525;85;21089;-64
2022/07/15 07:31:25;;;;;;;3.02;2.00;;;;;;;23.64;44.10;95467.34;1681514;85;21029;-64
2022/07/15 07:33:49;;;;;;;1.70;1.50;;;;;;;23.69;43.98;95466.52;1681380;85;21021;-64
2022/07/15 07:36:15;;;;;;;1.77;1.60;;;;;;;23.78;44.71;95469.55;1681445;85;21010;-64
2022/07/15 07:38:42;;;;;;;4.58;1.55;;;;;;;23.92;44.98;95464.87;1681341;85;21081;-64
2022/07/15 07:41:09;;;;;;;1.50;1.40;;;;;;;24.26;43.71;95470.94;1680977;85;21057;-64
2022/07/15 07:43:37;;;;;;;2.85;1.60;;;;;;;24.64;41.87;95470.75;1681166;85;21053;-64
2022/07/15 07:46:04;;;;;;;1.80;1.35;;;;;;;24.98;41.21;95472.22;1681380;85;21088;-65
2022/07/15 07:48:31;;;;;;;2.05;1.70;;;;;;;25.31;41.01;95467.89;1681486;85;21026;-64
2022/07/15 07:50:58;;;;;;;2.58;1.50;;;;;;;25.46;39.72;95477.47;1681452;85;21112;-65
2022/07/15 07:53:26;;;;;;;3.10;1.75;;;;;;;25.69;38.00;95469.72;1681491;85;21033;-64
2022/07/15 07:55:52;;;;;;;3.50;1.50;;;;;;;25.83;38.65;95485.30;1681172;85;21010;-64
2022/07/15 07:58:20;;;;;;;2.45;1.40;;;;;;;26.13;37.16;95484.68;1681527;85;21049;-65
2022/07/15 08:00:47;;;;;;;2.65;1.70;;;;;;;26.55;35.72;95494.31;1681470;85;21065;-65
2022/07/15 08:03:15;;;;;;;6.60;1.82;;;;;;;26.89;36.53;95501.81;1681454;85;21029;-65
2022/07/15 08:05:42;;;;;;;4.45;2.00;;;;;;;27.17;35.11;95494.88;1681397;85;21053;-65
2022/07/15 08:08:19;;;;;;;4.30;1.70;;;;;;;27.25;35.34;95503.73;1681524;85;21002;-65
2022/07/15 08:10:53;;;;;;;3.30;2.00;;;;;;;27.19;35.04;95515.97;1669235;85;21054;-65
2022/07/15 08:13:22;;;;;;;2.62;1.85;;;;;;;27.12;35.66;95520.16;1666491;85;21038;-65
2022/07/15 08:15:50;;;;;;;2.70;1.60;;;;;;;27.02;35.74;95523.28;1666216;86;21017;-65
2022/07/15 08:18:17;;;;;;;7.15;1.90;;;;;;;27.01;35.33;95526.97;1666771;86;21535;-65
2022/07/15 08:20:44;;;;;;;4.17;2.00;;;;;;;27.16;35.88;95534.28;1666263;86;21018;-65
2022/07/15 08:23:10;;;;;;;3.70;1.95;;;;;;;27.22;34.29;95532.45;1643144;86;21037;-64
2022/07/15 08:25:38;;;;;;;2.00;1.80;;;;;;;27.36;34.33;95533.45;1666416;86;21057;-64
2022/07/15 08:28:07;;;;;;;3.25;1.60;;;;;;;27.56;33.87;95514.61;1666379;86;20994;-65
2022/07/15 08:30:34;;;;;;;5.50;1.67;;;;;;;27.94;34.80;95516.66;1666284;86;21575;-64
2022/07/15 08:33:02;;;;;;;2.67;1.62;;;;;;;28.17;34.31;95521.88;1666409;86;21042;-65
2022/07/15 08:35:29;;;;;;;3.50;1.50;;;;;;;28.44;33.75;95526.20;1666434;86;21535;-67
2022/07/15 08:37:56;;;;;;;3.30;1.60;;;;;;;28.67;33.08;95517.81;1665832;86;21050;-66
2022/07/15 08:40:24;;;;;;;3.98;1.60;;;;;;;28.83;32.69;95528.14;1666415;86;21066;-67
2022/07/15 08:42:51;;;;;;;1.75;1.25;;;;;;;28.97;32.42;95529.55;1666324;86;21022;-67
2022/07/15 08:45:18;;;;;;;3.75;1.65;;;;;;;29.05;31.34;95526.97;1666237;86;21041;-67
2022/07/15 08:47:47;;;;;;;4.40;1.52;;;;;;;28.89;31.53;95538.42;1666158;86;21034;-67
2022/07/15 08:50:17;;;;;;;1.87;1.70;;;;;;;28.75;32.29;95544.26;1666532;85;21483;-66
2022/07/15 08:52:45;;;;;;;5.97;1.70;;;;;;;28.64;32.01;95544.74;1666173;86;21018;-67
2022/07/15 08:55:17;;;;;;;4.12;1.57;;;;;;;28.70;32.41;95537.89;1666451;86;21058;-66
2022/07/15 08:57:50;;;;;;;2.30;1.80;;;;;;;28.57;32.61;95544.94;1666248;86;21073;-67
2022/07/15 09:00:18;;;;;;;5.67;1.77;;;;;;;28.34;32.66;95552.94;1666420;86;21555;-67
2022/07/15 09:02:46;;;;;;;1.30;1.20;;;;;;;28.13;32.63;95547.59;1666342;86;21026;-67
2022/07/15 09:05:24;;;;;;;7.45;1.62;;;;;;;28.04;32.88;95546.54;1666162;86;21038;-66
2022/07/15 09:07:56;;;;;;;2.90;1.60;;;;;;;28.10;33.01;95550.08;1666295;86;21543;-67
2022/07/15 09:10:26;;;;;;;4.20;1.45;;;;;;;28.08;33.37;95549.86;1673618;85;21069;-66
2022/07/15 09:12:54;;;;;;;3.65;1.37;;;;;;;28.05;33.40;95551.84;1681255;85;21053;-66
2022/07/15 09:15:36;;;;;;;7.47;1.70;;;;;;;28.07;33.25;95550.83;1681462;85;21464;-67
2022/07/15 09:18:12;;;;;;;1.70;1.50;;;;;;;28.13;33.37;95552.52;1680544;85;21105;-67
2022/07/15 09:20:40;;;;;;;4.20;1.60;;;;;;;28.15;33.67;95544.22;1676590;85;21526;-66
2022/07/15 09:23:09;;;;;;;4.87;1.67;;;;;;;28.26;33.30;95545.48;1681489;85;21048;-66
2022/07/15 09:25:38;;;;;;;2.83;1.70;;;;;;;28.23;33.55;95545.77;1681182;85;21069;-66
2022/07/15 09:28:07;;;;;;;7.65;2.30;;;;;;;28.39;33.84;95539.30;1681329;85;21531;-66
2022/07/15 09:33:40;;;;;;;6.40;1.87;;;;;;;29.16;33.89;95531.45;1681303;85;20982;-67
2022/07/15 09:36:14;;;;;;;5.95;1.80;;;;;;;29.52;33.10;95531.18;1681423;85;21519;-66
2022/07/15 09:38:46;;;;;;;4.45;1.80;;;;;;;29.53;32.71;95536.95;1681317;85;21053;-67
2022/07/15 09:41:27;;;;;;;4.28;1.50;;;;;;;29.44;33.17;95535.14;1681741;85;21464;-66
2022/07/15 09:44:08;;;;;;;8.45;2.10;;;;;;;29.21;33.38;95535.45;1668678;85;21052;-67
2022/07/15 09:46:59;;;;;;;4.83;1.70;;;;;;;29.11;33.69;95534.60;1656131;85;21002;-66
2022/07/15 09:49:32;;;;;;;6.05;1.90;;;;;;;28.88;33.57;95535.36;1681321;85;21105;-66
2022/07/15 09:52:09;;;;;;;2.70;1.72;;;;;;;28.80;34.17;95536.55;1681352;85;21045;-66
2022/07/15 09:54:47;;;;;;;2.02;1.60;;;;;;;28.64;33.75;95529.81;1681012;85;21101;-66
2022/07/15 09:57:18;;;;;;;3.17;1.70;;;;;;;28.42;33.07;95526.80;1681219;85;21021;-66
2022/07/15 09:59:47;;;;;;;1.77;1.30;;;;;;;28.37;33.99;95528.23;1681439;85;21583;-66
2022/07/15 10:02:15;;;;;;;2.72;1.57;;;;;;;28.34;33.19;95525.80;1681215;84;21483;-67
2022/07/15 10:04:42;;;;;;;3.90;1.57;;;;;;;28.33;32.25;95527.66;1681423;85;21101;-66
2022/07/15 10:07:12;;;;;;;2.77;1.40;;;;;;;28.06;32.45;95509.30;1681379;85;21041;-66
2022/07/15 10:09:41;;;;;;;3.10;1.70;;;;;;;27.82;32.46;95510.97;1679853;85;21022;-67
2022/07/15 10:12:16;;;;;;;2.67;1.50;;;;;;;27.77;33.90;95506.42;1643575;86;21547;-67
2022/07/15 10:15:08;;;;;;;1.70;1.17;;;;;;;27.79;32.33;95504.44;1666060;86;21101;-66
2022/07/15 10:18:09;;;;;;;1.52;1.40;;;;;;;27.78;32.14;95501.38;1665787;85;21089;-66
2022/07/15 10:21:02;;;;;;;1.92;1.50;;;;;;;27.81;31.66;95491.61;1666647;86;21038;-66
2022/07/15 10:23:57;;;;;;;6.40;1.32;;;;;;;27.93;32.46;95481.56;1666261;86;21050;-66
2022/07/15 10:26:58;;;;;;;1.00;1.00;;;;;;;27.99;31.11;95500.84;1666446;86;21045;-67
2022/07/15 10:29:28;;;;;;;1.20;1.10;;;;;;;27.98;30.41;95497.78;1666317;86;21011;-66
2022/07/15 10:31:58;;;;;;;2.02;1.10;;;;;;;27.83;29.01;95496.44;1666366;86;21050;-67
2022/07/15 10:34:33;;;;;;;1.87;1.35;;;;;;;27.72;29.15;95500.55;1666328;86;21014;-66
2022/07/15 10:37:06;;;;;;;2.95;1.27;;;;;;;27.93;29.24;95498.69;1665253;86;21007;-66
2022/07/15 10:39:50;;;;;;;1.12;1.02;;;;;;;28.25;28.82;95491.73;1666297;86;21038;-66
2022/07/15 10:42:18;;;;;;;1.42;1.30;;;;;;;28.56;27.63;95513.88;1660530;86;21449;-67
2022/07/15 10:45:02;;;;;;;1.20;1.10;;;;;;;28.65;28.45;95502.16;1666210;86;21029;-66
2022/07/15 10:47:30;;;;;;;2.40;1.15;;;;;;;28.72;28.57;95497.03;1666036;86;21066;-66
2022/07/15 10:49:57;;;;;;;2.55;1.20;;;;;;;28.78;27.52;95502.77;1666169;86;21038;-67
2022/07/15 10:52:30;;;;;;;3.33;1.02;;;;;;;28.50;27.11;95513.07;1665985;86;21042;-66
2022/07/15 10:55:04;;;;;;;1.35;1.25;;;;;;;28.43;27.89;95521.75;1666356;86;21018;-67
2022/07/15 10:57:48;;;;;;;4.55;1.20;;;;;;;28.27;27.68;95511.92;1666009;86;21110;-66
2022/07/15 11:00:34;;;;;;;1.52;1.17;;;;;;;28.17;28.54;95521.41;1666334;86;21033;-66
2022/07/15 11:03:17;;;;;;;4.85;1.20;;;;;;;27.99;29.17;95525.25;1666426;86;21523;-66
2022/07/15 11:05:56;;;;;;;1.10;1.00;;;;;;;27.86;29.50;95525.98;1666451;86;21046;-66
2022/07/15 11:08:40;;;;;;;2.30;1.00;;;;;;;27.59;28.71;95536.02;1666285;86;21054;-66
2022/07/15 11:11:20;;;;;;;2.25;0.98;;;;;;;27.47;29.49;95546.56;1672966;85;21607;-66
2022/07/15 11:13:49;;;;;;;1.30;1.20;;;;;;;27.19;29.64;95541.70;1678823;85;21053;-66
2022/07/15 11:16:20;;;;;;;5.00;1.40;;;;;;;26.80;30.33;95551.31;1678700;85;21021;-66
2022/07/15 11:18:53;;;;;;;1.20;1.00;;;;;;;26.53;30.69;95553.99;1678905;85;21017;-66
2022/07/15 11:21:22;;;;;;;2.55;1.10;;;;;;;26.43;31.25;95553.47;1678820;85;21045;-66
2022/07/15 11:23:52;;;;;;;2.40;1.30;;;;;;;26.38;31.76;95561.96;1678749;85;20993;-66
2022/07/15 11:26:18;;;;;;;1.50;1.20;;;;;;;26.33;32.19;95567.77;1678706;85;21511;-66
2022/07/15 11:28:50;;;;;;;1.05;1.00;;;;;;;26.20;31.99;95570.23;1678753;85;21527;-66
2022/07/15 11:31:17;;;;;;;2.72;1.27;;;;;;;26.03;32.49;95569.77;1678879;85;21049;-66
2022/07/15 11:33:44;;;;;;;4.33;1.40;;;;;;;26.08;33.08;95563.50;1678769;85;21037;-66
2022/07/15 11:36:24;;;;;;;4.65;1.20;;;;;;;26.08;33.70;95562.14;1678594;85;21172;-67
2022/07/15 11:38:49;;;;;;;2.92;1.65;;;;;;;26.09;34.11;95549.48;1678084;85;21049;-66
2022/07/15 11:46:51;;;;;;;6.60;1.30;;;;;;;26.27;35.33;95556.58;1678840;85;21034;-66
2022/07/15 11:49:34;;;;;;;3.10;1.60;;;;;;;26.40;34.79;95549.17;1678853;85;21041;-66
2022/07/15 11:52:04;;;;;;;1.40;1.30;;;;;;;26.46;35.01;95551.39;1678908;85;21033;-66
2022/07/15 11:54:32;;;;;;;3.92;1.27;;;;;;;26.51;34.97;95546.92;1678495;85;21089;-66
2022/07/15 11:57:04;;;;;;;4.70;1.60;;;;;;;26.61;35.44;95546.59;1651604;85;21551;-66
2022/07/15 11:59:31;;;;;;;9.38;1.80;;;;;;;26.73;35.62;95550.95;1678813;85;21014;-66